sensor_id;sensor_type;location;lat;lon;timestamp;P1;durP1;ratioP1;P2;durP2;ratioP2
13475;SDS011;6810;63.824;20.288;2023-03-01T00:01:14;0.30;;;0.20;;
13475;SDS011;6810;63.824;20.288;2023-03-01T00:03:43;0.50;;;0.37;;
13475;SDS011;6810;63.824;20.288;2023-03-01T00:06:10;1.27;;;0.20;;
13475;SDS011;6810;63.824;20.288;2023-03-01T00:08:37;0.57;;;0.57;;
13475;SDS011;6810;63.824;20.288;2023-03-01T00:11:08;0.40;;;0.20;;
13475;SDS011;6810;63.824;20.288;2023-03-01T00:13:45;0.43;;;0.23;;
13475;SDS011;6810;63.824;20.288;2023-03-01T00:16:15;1.07;;;0.10;;
13475;SDS011;6810;63.824;20.288;2023-03-01T00:18:43;0.90;;;0.20;;
13475;SDS011;6810;63.824;20.288;2023-03-01T00:21:11;1.17;;;0.23;;
13475;SDS011;6810;63.824;20.288;2023-03-01T00:23:39;1.60;;;0.27;;
13475;SDS011;6810;63.824;20.288;2023-03-01T00:26:09;0.83;;;0.20;;
13475;SDS011;6810;63.824;20.288;2023-03-01T00:28:40;1.90;;;0.20;;
13475;SDS011;6810;63.824;20.288;2023-03-01T00:31:09;0.83;;;0.20;;
13475;SDS011;6810;63.824;20.288;2023-03-01T00:33:46;1.17;;;0.20;;
13475;SDS011;6810;63.824;20.288;2023-03-01T00:36:14;0.70;;;0.20;;
13475;SDS011;6810;63.824;20.288;2023-03-01T00:38:43;0.43;;;0.20;;
13475;SDS011;6810;63.824;20.288;2023-03-01T00:41:12;0.20;;;0.10;;
13475;SDS011;6810;63.824;20.288;2023-03-01T00:43:41;0.63;;;0.10;;
13475;SDS011;6810;63.824;20.288;2023-03-01T00:46:10;1.23;;;0.30;;
13475;SDS011;6810;63.824;20.288;2023-03-01T00:48:42;1.87;;;0.20;;
13475;SDS011;6810;63.824;20.288;2023-03-01T00:53:38;0.17;;;0.10;;
13475;SDS011;6810;63.824;20.288;2023-03-01T00:56:07;0.30;;;0.07;;
13475;SDS011;6810;63.824;20.288;2023-03-01T00:58:35;0.60;;;0.10;;
13475;SDS011;6810;63.824;20.288;2023-03-01T01:04:00;0.07;;;0.07;;
13475;SDS011;6810;63.824;20.288;2023-03-01T01:06:31;0.20;;;0.10;;
13475;SDS011;6810;63.824;20.288;2023-03-01T01:09:00;0.30;;;0.10;;
13475;SDS011;6810;63.824;20.288;2023-03-01T01:11:29;0.10;;;0.00;;
13475;SDS011;6810;63.824;20.288;2023-03-01T01:13:57;0.77;;;0.10;;
13475;SDS011;6810;63.824;20.288;2023-03-01T01:16:26;0.30;;;0.00;;
13475;SDS011;6810;63.824;20.288;2023-03-01T01:18:55;0.23;;;0.10;;
13475;SDS011;6810;63.824;20.288;2023-03-01T01:21:23;0.00;;;0.00;;
13475;SDS011;6810;63.824;20.288;2023-03-01T01:23:51;0.00;;;0.00;;
13475;SDS011;6810;63.824;20.288;2023-03-01T01:26:19;0.73;;;0.00;;
13475;SDS011;6810;63.824;20.288;2023-03-01T01:28:50;0.20;;;0.00;;
13475;SDS011;6810;63.824;20.288;2023-03-01T01:31:18;0.27;;;0.00;;
13475;SDS011;6810;63.824;20.288;2023-03-01T01:33:46;0.10;;;0.10;;
13475;SDS011;6810;63.824;20.288;2023-03-01T01:36:13;0.00;;;0.00;;
13475;SDS011;6810;63.824;20.288;2023-03-01T01:38:40;0.20;;;0.10;;
13475;SDS011;6810;63.824;20.288;2023-03-01T01:41:09;0.20;;;0.10;;
13475;SDS011;6810;63.824;20.288;2023-03-01T01:43:42;0.27;;;0.00;;
13475;SDS011;6810;63.824;20.288;2023-03-01T01:46:16;0.30;;;0.00;;
13475;SDS011;6810;63.824;20.288;2023-03-01T01:49:05;0.00;;;0.00;;
13475;SDS011;6810;63.824;20.288;2023-03-01T01:51:41;0.00;;;0.00;;
13475;SDS011;6810;63.824;20.288;2023-03-01T01:54:16;0.00;;;0.00;;
13475;SDS011;6810;63.824;20.288;2023-03-01T01:57:01;0.37;;;0.10;;
13475;SDS011;6810;63.824;20.288;2023-03-01T01:59:32;0.00;;;0.00;;
13475;SDS011;6810;63.824;20.288;2023-03-01T02:02:02;0.13;;;0.00;;
13475;SDS011;6810;63.824;20.288;2023-03-01T02:04:31;0.73;;;0.00;;
13475;SDS011;6810;63.824;20.288;2023-03-01T02:07:08;0.10;;;0.10;;
13475;SDS011;6810;63.824;20.288;2023-03-01T02:09:41;0.00;;;0.00;;
13475;SDS011;6810;63.824;20.288;2023-03-01T02:12:12;0.03;;;0.00;;
13475;SDS011;6810;63.824;20.288;2023-03-01T02:14:40;0.83;;;0.00;;
13475;SDS011;6810;63.824;20.288;2023-03-01T02:17:07;0.00;;;0.00;;
13475;SDS011;6810;63.824;20.288;2023-03-01T02:22:39;0.10;;;0.10;;
13475;SDS011;6810;63.824;20.288;2023-03-01T02:30:34;0.30;;;0.00;;
13475;SDS011;6810;63.824;20.288;2023-03-01T02:33:03;0.00;;;0.00;;
13475;SDS011;6810;63.824;20.288;2023-03-01T02:35:36;0.00;;;0.00;;
13475;SDS011;6810;63.824;20.288;2023-03-01T02:38:06;0.27;;;0.00;;
13475;SDS011;6810;63.824;20.288;2023-03-01T02:40:35;0.00;;;0.00;;
13475;SDS011;6810;63.824;20.288;2023-03-01T02:43:04;0.10;;;0.00;;
13475;SDS011;6810;63.824;20.288;2023-03-01T02:45:35;0.20;;;0.10;;
13475;SDS011;6810;63.824;20.288;2023-03-01T02:48:02;0.10;;;0.00;;
13475;SDS011;6810;63.824;20.288;2023-03-01T02:55:26;0.10;;;0.00;;
13475;SDS011;6810;63.824;20.288;2023-03-01T02:57:56;0.10;;;0.00;;
13475;SDS011;6810;63.824;20.288;2023-03-01T03:00:24;0.27;;;0.00;;
13475;SDS011;6810;63.824;20.288;2023-03-01T03:02:55;0.00;;;0.00;;
13475;SDS011;6810;63.824;20.288;2023-03-01T03:05:26;0.10;;;0.00;;
13475;SDS011;6810;63.824;20.288;2023-03-01T03:07:57;0.00;;;0.00;;
13475;SDS011;6810;63.824;20.288;2023-03-01T03:10:27;0.00;;;0.00;;
13475;SDS011;6810;63.824;20.288;2023-03-01T03:13:00;0.00;;;0.00;;
13475;SDS011;6810;63.824;20.288;2023-03-01T03:15:30;0.03;;;0.03;;
13475;SDS011;6810;63.824;20.288;2023-03-01T03:17:58;0.10;;;0.00;;
13475;SDS011;6810;63.824;20.288;2023-03-01T03:20:27;0.07;;;0.00;;
13475;SDS011;6810;63.824;20.288;2023-03-01T03:22:55;0.00;;;0.00;;
13475;SDS011;6810;63.824;20.288;2023-03-01T03:25:25;0.00;;;0.00;;
13475;SDS011;6810;63.824;20.288;2023-03-01T03:27:54;0.20;;;0.00;;
13475;SDS011;6810;63.824;20.288;2023-03-01T03:30:27;0.00;;;0.00;;
13475;SDS011;6810;63.824;20.288;2023-03-01T03:32:56;0.03;;;0.00;;
13475;SDS011;6810;63.824;20.288;2023-03-01T03:35:28;0.07;;;0.00;;
13475;SDS011;6810;63.824;20.288;2023-03-01T03:38:01;0.00;;;0.00;;
13475;SDS011;6810;63.824;20.288;2023-03-01T03:40:37;0.67;;;0.00;;
13475;SDS011;6810;63.824;20.288;2023-03-01T03:43:12;0.00;;;0.00;;
13475;SDS011;6810;63.824;20.288;2023-03-01T03:45:41;0.50;;;0.03;;
13475;SDS011;6810;63.824;20.288;2023-03-01T03:48:08;0.00;;;0.00;;
13475;SDS011;6810;63.824;20.288;2023-03-01T03:50:40;0.23;;;0.00;;
13475;SDS011;6810;63.824;20.288;2023-03-01T03:53:10;1.03;;;0.00;;
13475;SDS011;6810;63.824;20.288;2023-03-01T03:55:38;0.00;;;0.00;;
13475;SDS011;6810;63.824;20.288;2023-03-01T03:58:07;0.10;;;0.00;;
13475;SDS011;6810;63.824;20.288;2023-03-01T04:00:40;0.20;;;0.07;;
13475;SDS011;6810;63.824;20.288;2023-03-01T04:03:10;0.00;;;0.00;;
13475;SDS011;6810;63.824;20.288;2023-03-01T04:05:38;0.57;;;0.00;;
13475;SDS011;6810;63.824;20.288;2023-03-01T04:08:07;0.73;;;0.00;;
13475;SDS011;6810;63.824;20.288;2023-03-01T04:10:39;0.30;;;0.10;;
13475;SDS011;6810;63.824;20.288;2023-03-01T04:13:10;0.00;;;0.00;;
13475;SDS011;6810;63.824;20.288;2023-03-01T04:15:39;0.13;;;0.00;;
13475;SDS011;6810;63.824;20.288;2023-03-01T04:18:06;0.30;;;0.00;;
13475;SDS011;6810;63.824;20.288;2023-03-01T04:20:35;0.00;;;0.00;;
13475;SDS011;6810;63.824;20.288;2023-03-01T04:23:12;0.00;;;0.00;;
13475;SDS011;6810;63.824;20.288;2023-03-01T04:25:47;0.20;;;0.03;;
13475;SDS011;6810;63.824;20.288;2023-03-01T04:28:31;0.13;;;0.10;;
13475;SDS011;6810;63.824;20.288;2023-03-01T04:31:05;1.13;;;0.00;;
13475;SDS011;6810;63.824;20.288;2023-03-01T04:33:40;0.10;;;0.00;;
13475;SDS011;6810;63.824;20.288;2023-03-01T04:36:09;1.10;;;0.10;;
13475;SDS011;6810;63.824;20.288;2023-03-01T04:38:37;0.00;;;0.00;;
13475;SDS011;6810;63.824;20.288;2023-03-01T04:41:05;0.17;;;0.10;;
13475;SDS011;6810;63.824;20.288;2023-03-01T04:43:37;0.00;;;0.00;;
13475;SDS011;6810;63.824;20.288;2023-03-01T04:46:06;0.00;;;0.00;;
13475;SDS011;6810;63.824;20.288;2023-03-01T04:48:39;0.07;;;0.00;;
13475;SDS011;6810;63.824;20.288;2023-03-01T04:51:07;0.10;;;0.00;;
13475;SDS011;6810;63.824;20.288;2023-03-01T04:53:35;0.00;;;0.00;;
13475;SDS011;6810;63.824;20.288;2023-03-01T04:56:05;0.00;;;0.00;;
13475;SDS011;6810;63.824;20.288;2023-03-01T04:58:32;0.00;;;0.00;;
13475;SDS011;6810;63.824;20.288;2023-03-01T05:01:00;0.20;;;0.10;;
13475;SDS011;6810;63.824;20.288;2023-03-01T05:03:27;0.40;;;0.00;;
13475;SDS011;6810;63.824;20.288;2023-03-01T05:05:54;0.57;;;0.10;;
13475;SDS011;6810;63.824;20.288;2023-03-01T05:08:26;0.10;;;0.10;;
13475;SDS011;6810;63.824;20.288;2023-03-01T05:10:53;0.53;;;0.00;;
13475;SDS011;6810;63.824;20.288;2023-03-01T05:13:21;0.40;;;0.30;;
13475;SDS011;6810;63.824;20.288;2023-03-01T05:15:49;0.20;;;0.17;;
13475;SDS011;6810;63.824;20.288;2023-03-01T05:18:21;0.37;;;0.20;;
13475;SDS011;6810;63.824;20.288;2023-03-01T05:20:56;0.10;;;0.10;;
13475;SDS011;6810;63.824;20.288;2023-03-01T05:23:31;0.30;;;0.17;;
13475;SDS011;6810;63.824;20.288;2023-03-01T05:25:59;1.10;;;0.10;;
13475;SDS011;6810;63.824;20.288;2023-03-01T05:28:27;0.13;;;0.10;;
13475;SDS011;6810;63.824;20.288;2023-03-01T05:30:55;0.20;;;0.10;;
13475;SDS011;6810;63.824;20.288;2023-03-01T05:33:22;0.23;;;0.10;;
13475;SDS011;6810;63.824;20.288;2023-03-01T05:35:51;0.17;;;0.17;;
13475;SDS011;6810;63.824;20.288;2023-03-01T05:38:19;0.10;;;0.10;;
13475;SDS011;6810;63.824;20.288;2023-03-01T05:40:47;0.40;;;0.10;;
13475;SDS011;6810;63.824;20.288;2023-03-01T05:43:15;0.53;;;0.10;;
13475;SDS011;6810;63.824;20.288;2023-03-01T05:45:43;0.10;;;0.10;;
13475;SDS011;6810;63.824;20.288;2023-03-01T05:48:11;0.17;;;0.10;;
13475;SDS011;6810;63.824;20.288;2023-03-01T05:50:40;0.40;;;0.20;;
13475;SDS011;6810;63.824;20.288;2023-03-01T05:53:10;0.10;;;0.00;;
13475;SDS011;6810;63.824;20.288;2023-03-01T05:55:39;0.10;;;0.10;;
13475;SDS011;6810;63.824;20.288;2023-03-01T05:58:11;0.60;;;0.10;;
13475;SDS011;6810;63.824;20.288;2023-03-01T06:00:41;0.50;;;0.20;;
13475;SDS011;6810;63.824;20.288;2023-03-01T06:03:10;1.30;;;0.00;;
13475;SDS011;6810;63.824;20.288;2023-03-01T06:05:39;0.60;;;0.13;;
13475;SDS011;6810;63.824;20.288;2023-03-01T06:08:07;0.20;;;0.13;;
13475;SDS011;6810;63.824;20.288;2023-03-01T06:10:36;0.10;;;0.10;;
13475;SDS011;6810;63.824;20.288;2023-03-01T06:13:03;1.07;;;0.10;;
13475;SDS011;6810;63.824;20.288;2023-03-01T06:15:31;0.57;;;0.20;;
13475;SDS011;6810;63.824;20.288;2023-03-01T06:17:58;1.00;;;0.10;;
13475;SDS011;6810;63.824;20.288;2023-03-01T06:20:27;1.27;;;0.17;;
13475;SDS011;6810;63.824;20.288;2023-03-01T06:22:54;0.70;;;0.17;;
13475;SDS011;6810;63.824;20.288;2023-03-01T06:25:22;1.13;;;0.20;;
13475;SDS011;6810;63.824;20.288;2023-03-01T06:27:50;2.20;;;0.30;;
13475;SDS011;6810;63.824;20.288;2023-03-01T06:30:19;0.27;;;0.20;;
13475;SDS011;6810;63.824;20.288;2023-03-01T06:32:48;1.97;;;0.40;;
13475;SDS011;6810;63.824;20.288;2023-03-01T06:35:16;0.30;;;0.10;;
13475;SDS011;6810;63.824;20.288;2023-03-01T06:37:45;0.77;;;0.33;;
13475;SDS011;6810;63.824;20.288;2023-03-01T06:40:13;0.60;;;0.10;;
13475;SDS011;6810;63.824;20.288;2023-03-01T06:42:42;0.70;;;0.20;;
13475;SDS011;6810;63.824;20.288;2023-03-01T06:45:10;0.07;;;0.00;;
13475;SDS011;6810;63.824;20.288;2023-03-01T06:47:38;0.30;;;0.10;;
13475;SDS011;6810;63.824;20.288;2023-03-01T06:50:05;0.87;;;0.10;;
13475;SDS011;6810;63.824;20.288;2023-03-01T06:52:33;1.20;;;0.23;;
13475;SDS011;6810;63.824;20.288;2023-03-01T06:55:00;0.47;;;0.47;;
13475;SDS011;6810;63.824;20.288;2023-03-01T06:57:27;0.47;;;0.10;;
13475;SDS011;6810;63.824;20.288;2023-03-01T06:59:54;0.33;;;0.20;;
13475;SDS011;6810;63.824;20.288;2023-03-01T07:02:21;0.50;;;0.30;;
13475;SDS011;6810;63.824;20.288;2023-03-01T07:04:49;0.30;;;0.20;;
13475;SDS011;6810;63.824;20.288;2023-03-01T07:07:17;1.70;;;0.37;;
13475;SDS011;6810;63.824;20.288;2023-03-01T07:09:45;2.20;;;0.33;;
13475;SDS011;6810;63.824;20.288;2023-03-01T07:12:12;2.10;;;0.37;;
13475;SDS011;6810;63.824;20.288;2023-03-01T07:14:39;2.27;;;1.00;;
13475;SDS011;6810;63.824;20.288;2023-03-01T07:17:06;2.37;;;0.30;;
13475;SDS011;6810;63.824;20.288;2023-03-01T07:19:34;1.50;;;0.40;;
13475;SDS011;6810;63.824;20.288;2023-03-01T07:22:01;1.47;;;0.40;;
13475;SDS011;6810;63.824;20.288;2023-03-01T07:24:28;0.87;;;0.53;;
13475;SDS011;6810;63.824;20.288;2023-03-01T07:26:54;0.90;;;0.40;;
13475;SDS011;6810;63.824;20.288;2023-03-01T07:29:22;2.97;;;0.43;;
13475;SDS011;6810;63.824;20.288;2023-03-01T07:31:49;0.30;;;0.20;;
13475;SDS011;6810;63.824;20.288;2023-03-01T07:34:16;1.20;;;0.40;;
13475;SDS011;6810;63.824;20.288;2023-03-01T07:36:43;2.10;;;0.30;;
13475;SDS011;6810;63.824;20.288;2023-03-01T07:39:11;0.67;;;0.20;;
13475;SDS011;6810;63.824;20.288;2023-03-01T07:41:38;0.30;;;0.20;;
13475;SDS011;6810;63.824;20.288;2023-03-01T07:44:06;1.23;;;0.30;;
13475;SDS011;6810;63.824;20.288;2023-03-01T07:46:33;3.47;;;0.30;;
13475;SDS011;6810;63.824;20.288;2023-03-01T07:49:00;2.10;;;0.30;;
13475;SDS011;6810;63.824;20.288;2023-03-01T07:51:27;0.83;;;0.27;;
13475;SDS011;6810;63.824;20.288;2023-03-01T07:53:54;0.10;;;0.10;;
13475;SDS011;6810;63.824;20.288;2023-03-01T07:56:21;1.47;;;0.30;;
13475;SDS011;6810;63.824;20.288;2023-03-01T07:58:48;0.47;;;0.30;;
13475;SDS011;6810;63.824;20.288;2023-03-01T08:01:18;0.57;;;0.20;;
13475;SDS011;6810;63.824;20.288;2023-03-01T08:03:46;0.53;;;0.30;;
13475;SDS011;6810;63.824;20.288;2023-03-01T08:06:14;0.30;;;0.13;;
13475;SDS011;6810;63.824;20.288;2023-03-01T08:08:43;1.67;;;0.10;;
13475;SDS011;6810;63.824;20.288;2023-03-01T08:11:11;1.77;;;0.10;;
13475;SDS011;6810;63.824;20.288;2023-03-01T08:13:38;2.30;;;0.20;;
13475;SDS011;6810;63.824;20.288;2023-03-01T08:16:07;0.47;;;0.20;;
13475;SDS011;6810;63.824;20.288;2023-03-01T08:18:36;0.10;;;0.10;;
13475;SDS011;6810;63.824;20.288;2023-03-01T08:21:13;0.93;;;0.17;;
13475;SDS011;6810;63.824;20.288;2023-03-01T08:23:42;0.77;;;0.20;;
13475;SDS011;6810;63.824;20.288;2023-03-01T08:26:14;1.03;;;0.17;;
13475;SDS011;6810;63.824;20.288;2023-03-01T08:28:44;2.20;;;0.47;;
13475;SDS011;6810;63.824;20.288;2023-03-01T08:33:48;0.67;;;0.13;;
13475;SDS011;6810;63.824;20.288;2023-03-01T08:36:22;0.20;;;0.10;;
13475;SDS011;6810;63.824;20.288;2023-03-01T08:38:55;1.10;;;0.30;;
13475;SDS011;6810;63.824;20.288;2023-03-01T08:41:22;0.40;;;0.30;;
13475;SDS011;6810;63.824;20.288;2023-03-01T08:43:49;0.27;;;0.20;;
13475;SDS011;6810;63.824;20.288;2023-03-01T08:46:17;1.57;;;0.20;;
13475;SDS011;6810;63.824;20.288;2023-03-01T08:48:44;0.97;;;0.27;;
13475;SDS011;6810;63.824;20.288;2023-03-01T08:51:18;0.67;;;0.07;;
13475;SDS011;6810;63.824;20.288;2023-03-01T08:54:06;2.73;;;0.40;;
13475;SDS011;6810;63.824;20.288;2023-03-01T08:56:56;2.80;;;0.63;;
13475;SDS011;6810;63.824;20.288;2023-03-01T08:59:43;1.37;;;0.20;;
13475;SDS011;6810;63.824;20.288;2023-03-01T09:02:30;0.40;;;0.10;;
13475;SDS011;6810;63.824;20.288;2023-03-01T09:05:17;0.50;;;0.20;;
13475;SDS011;6810;63.824;20.288;2023-03-01T09:08:04;1.50;;;0.30;;
13475;SDS011;6810;63.824;20.288;2023-03-01T09:10:51;0.60;;;0.10;;
13475;SDS011;6810;63.824;20.288;2023-03-01T09:13:38;0.67;;;0.40;;
13475;SDS011;6810;63.824;20.288;2023-03-01T09:16:26;0.37;;;0.20;;
13475;SDS011;6810;63.824;20.288;2023-03-01T09:19:13;1.20;;;0.20;;
13475;SDS011;6810;63.824;20.288;2023-03-01T09:22:00;0.23;;;0.17;;
13475;SDS011;6810;63.824;20.288;2023-03-01T09:24:47;1.07;;;0.30;;
13475;SDS011;6810;63.824;20.288;2023-03-01T09:27:34;0.20;;;0.20;;
13475;SDS011;6810;63.824;20.288;2023-03-01T09:30:21;1.50;;;0.30;;
13475;SDS011;6810;63.824;20.288;2023-03-01T09:33:08;0.90;;;0.10;;
13475;SDS011;6810;63.824;20.288;2023-03-01T09:35:57;0.40;;;0.27;;
13475;SDS011;6810;63.824;20.288;2023-03-01T09:38:49;0.70;;;0.30;;
13475;SDS011;6810;63.824;20.288;2023-03-01T09:44:51;1.27;;;0.27;;
13475;SDS011;6810;63.824;20.288;2023-03-01T09:47:45;1.60;;;0.40;;
13475;SDS011;6810;63.824;20.288;2023-03-01T09:50:36;1.10;;;0.20;;
13475;SDS011;6810;63.824;20.288;2023-03-01T09:53:31;0.10;;;0.10;;
13475;SDS011;6810;63.824;20.288;2023-03-01T09:56:20;1.70;;;0.20;;
13475;SDS011;6810;63.824;20.288;2023-03-01T09:59:26;0.83;;;0.10;;
13475;SDS011;6810;63.824;20.288;2023-03-01T10:02:26;1.37;;;0.27;;
13475;SDS011;6810;63.824;20.288;2023-03-01T10:08:41;0.73;;;0.20;;
13475;SDS011;6810;63.824;20.288;2023-03-01T10:11:42;0.30;;;0.30;;
13475;SDS011;6810;63.824;20.288;2023-03-01T10:14:38;0.20;;;0.10;;
13475;SDS011;6810;63.824;20.288;2023-03-01T10:17:35;1.40;;;0.20;;
13475;SDS011;6810;63.824;20.288;2023-03-01T10:23:16;1.43;;;0.40;;
13475;SDS011;6810;63.824;20.288;2023-03-01T10:29:04;0.40;;;0.30;;
13475;SDS011;6810;63.824;20.288;2023-03-01T10:31:53;1.23;;;0.27;;
13475;SDS011;6810;63.824;20.288;2023-03-01T10:34:40;0.30;;;0.10;;
13475;SDS011;6810;63.824;20.288;2023-03-01T10:37:27;1.50;;;0.20;;
13475;SDS011;6810;63.824;20.288;2023-03-01T10:40:14;0.53;;;0.27;;
13475;SDS011;6810;63.824;20.288;2023-03-01T10:43:03;0.83;;;0.20;;
13475;SDS011;6810;63.824;20.288;2023-03-01T10:45:51;0.70;;;0.10;;
13475;SDS011;6810;63.824;20.288;2023-03-01T10:48:38;0.50;;;0.10;;
13475;SDS011;6810;63.824;20.288;2023-03-01T10:51:25;0.30;;;0.17;;
13475;SDS011;6810;63.824;20.288;2023-03-01T10:54:16;0.73;;;0.17;;
13475;SDS011;6810;63.824;20.288;2023-03-01T10:57:30;0.67;;;0.00;;
13475;SDS011;6810;63.824;20.288;2023-03-01T11:00:25;0.90;;;0.20;;
13475;SDS011;6810;63.824;20.288;2023-03-01T11:03:13;0.20;;;0.20;;
13475;SDS011;6810;63.824;20.288;2023-03-01T11:08:51;0.40;;;0.10;;
13475;SDS011;6810;63.824;20.288;2023-03-01T11:11:38;1.70;;;0.20;;
13475;SDS011;6810;63.824;20.288;2023-03-01T11:14:26;0.50;;;0.20;;
13475;SDS011;6810;63.824;20.288;2023-03-01T11:20:29;0.40;;;0.30;;
13475;SDS011;6810;63.824;20.288;2023-03-01T11:23:18;0.97;;;0.20;;
13475;SDS011;6810;63.824;20.288;2023-03-01T11:26:08;0.20;;;0.10;;
13475;SDS011;6810;63.824;20.288;2023-03-01T11:28:56;1.83;;;0.10;;
13475;SDS011;6810;63.824;20.288;2023-03-01T11:31:48;1.03;;;0.20;;
13475;SDS011;6810;63.824;20.288;2023-03-01T11:34:42;0.63;;;0.30;;
13475;SDS011;6810;63.824;20.288;2023-03-01T11:37:41;0.67;;;0.10;;
13475;SDS011;6810;63.824;20.288;2023-03-01T11:40:39;0.63;;;0.20;;
13475;SDS011;6810;63.824;20.288;2023-03-01T11:46:48;0.70;;;0.20;;
13475;SDS011;6810;63.824;20.288;2023-03-01T11:56:22;0.10;;;0.10;;
13475;SDS011;6810;63.824;20.288;2023-03-01T11:59:19;1.10;;;0.30;;
13475;SDS011;6810;63.824;20.288;2023-03-01T12:05:50;0.90;;;0.20;;
13475;SDS011;6810;63.824;20.288;2023-03-01T12:09:09;0.43;;;0.20;;
13475;SDS011;6810;63.824;20.288;2023-03-01T12:21:05;0.97;;;0.10;;
13475;SDS011;6810;63.824;20.288;2023-03-01T12:27:18;0.20;;;0.20;;
13475;SDS011;6810;63.824;20.288;2023-03-01T12:51:28;1.50;;;0.10;;
13475;SDS011;6810;63.824;20.288;2023-03-01T12:54:25;0.87;;;0.13;;
13475;SDS011;6810;63.824;20.288;2023-03-01T12:57:37;0.67;;;0.13;;
13475;SDS011;6810;63.824;20.288;2023-03-01T13:01:16;0.77;;;0.10;;
13475;SDS011;6810;63.824;20.288;2023-03-01T13:03:58;0.87;;;0.13;;
13475;SDS011;6810;63.824;20.288;2023-03-01T13:07:13;0.53;;;0.10;;
13475;SDS011;6810;63.824;20.288;2023-03-01T13:13:12;0.73;;;0.20;;
13475;SDS011;6810;63.824;20.288;2023-03-01T13:16:40;0.30;;;0.10;;
13475;SDS011;6810;63.824;20.288;2023-03-01T13:19:26;0.10;;;0.10;;
13475;SDS011;6810;63.824;20.288;2023-03-01T13:22:36;1.37;;;0.30;;
13475;SDS011;6810;63.824;20.288;2023-03-01T13:25:22;0.27;;;0.20;;
13475;SDS011;6810;63.824;20.288;2023-03-01T13:34:17;0.23;;;0.20;;
13475;SDS011;6810;63.824;20.288;2023-03-01T13:37:28;0.63;;;0.23;;
13475;SDS011;6810;63.824;20.288;2023-03-01T13:43:26;1.10;;;0.47;;
13475;SDS011;6810;63.824;20.288;2023-03-01T13:49:14;0.93;;;0.30;;
13475;SDS011;6810;63.824;20.288;2023-03-01T13:55:44;1.27;;;0.20;;
13475;SDS011;6810;63.824;20.288;2023-03-01T13:58:33;0.30;;;0.10;;
13475;SDS011;6810;63.824;20.288;2023-03-01T14:01:34;0.70;;;0.20;;
13475;SDS011;6810;63.824;20.288;2023-03-01T14:04:32;0.30;;;0.20;;
13475;SDS011;6810;63.824;20.288;2023-03-01T14:07:20;2.13;;;0.20;;
13475;SDS011;6810;63.824;20.288;2023-03-01T14:10:11;0.20;;;0.20;;
13475;SDS011;6810;63.824;20.288;2023-03-01T14:13:05;0.50;;;0.20;;
13475;SDS011;6810;63.824;20.288;2023-03-01T14:22:00;0.50;;;0.30;;
13475;SDS011;6810;63.824;20.288;2023-03-01T14:25:01;1.27;;;0.30;;
13475;SDS011;6810;63.824;20.288;2023-03-01T14:28:02;2.00;;;0.40;;
13475;SDS011;6810;63.824;20.288;2023-03-01T14:34:20;1.47;;;0.27;;
13475;SDS011;6810;63.824;20.288;2023-03-01T14:37:20;0.60;;;0.20;;
13475;SDS011;6810;63.824;20.288;2023-03-01T14:40:20;0.10;;;0.10;;
13475;SDS011;6810;63.824;20.288;2023-03-01T14:43:13;1.30;;;0.30;;
13475;SDS011;6810;63.824;20.288;2023-03-01T14:46:15;0.60;;;0.10;;
13475;SDS011;6810;63.824;20.288;2023-03-01T14:49:05;0.27;;;0.10;;
13475;SDS011;6810;63.824;20.288;2023-03-01T14:52:04;0.10;;;0.10;;
13475;SDS011;6810;63.824;20.288;2023-03-01T14:54:52;0.23;;;0.13;;
13475;SDS011;6810;63.824;20.288;2023-03-01T14:57:43;0.40;;;0.20;;
13475;SDS011;6810;63.824;20.288;2023-03-01T15:00:32;1.40;;;0.20;;
13475;SDS011;6810;63.824;20.288;2023-03-01T15:03:24;2.53;;;0.30;;
13475;SDS011;6810;63.824;20.288;2023-03-01T15:06:21;0.70;;;0.30;;
13475;SDS011;6810;63.824;20.288;2023-03-01T15:09:14;1.00;;;0.30;;
13475;SDS011;6810;63.824;20.288;2023-03-01T15:18:16;0.20;;;0.03;;
13475;SDS011;6810;63.824;20.288;2023-03-01T15:21:06;0.90;;;0.10;;
13475;SDS011;6810;63.824;20.288;2023-03-01T15:27:13;0.50;;;0.33;;
13475;SDS011;6810;63.824;20.288;2023-03-01T15:30:05;1.13;;;0.27;;
13475;SDS011;6810;63.824;20.288;2023-03-01T15:39:39;0.30;;;0.20;;
13475;SDS011;6810;63.824;20.288;2023-03-01T15:42:39;0.43;;;0.30;;
13475;SDS011;6810;63.824;20.288;2023-03-01T15:45:27;0.97;;;0.30;;
13475;SDS011;6810;63.824;20.288;2023-03-01T15:48:17;0.57;;;0.03;;
13475;SDS011;6810;63.824;20.288;2023-03-01T15:51:09;0.33;;;0.10;;
13475;SDS011;6810;63.824;20.288;2023-03-01T15:54:01;1.17;;;0.10;;
13475;SDS011;6810;63.824;20.288;2023-03-01T15:56:50;0.10;;;0.00;;
13475;SDS011;6810;63.824;20.288;2023-03-01T15:59:37;0.47;;;0.10;;
13475;SDS011;6810;63.824;20.288;2023-03-01T16:02:24;0.20;;;0.10;;
13475;SDS011;6810;63.824;20.288;2023-03-01T16:05:16;0.53;;;0.10;;
13475;SDS011;6810;63.824;20.288;2023-03-01T16:08:06;0.33;;;0.30;;
13475;SDS011;6810;63.824;20.288;2023-03-01T16:10:53;0.10;;;0.10;;
13475;SDS011;6810;63.824;20.288;2023-03-01T16:13:40;0.10;;;0.10;;
13475;SDS011;6810;63.824;20.288;2023-03-01T16:16:27;1.40;;;0.23;;
13475;SDS011;6810;63.824;20.288;2023-03-01T16:19:14;0.13;;;0.10;;
13475;SDS011;6810;63.824;20.288;2023-03-01T16:22:01;1.80;;;0.60;;
13475;SDS011;6810;63.824;20.288;2023-03-01T16:24:48;0.70;;;0.53;;
13475;SDS011;6810;63.824;20.288;2023-03-01T16:27:35;0.90;;;0.20;;
13475;SDS011;6810;63.824;20.288;2023-03-01T16:30:22;0.90;;;0.20;;
13475;SDS011;6810;63.824;20.288;2023-03-01T16:33:09;0.50;;;0.20;;
13475;SDS011;6810;63.824;20.288;2023-03-01T16:36:00;0.33;;;0.20;;
13475;SDS011;6810;63.824;20.288;2023-03-01T16:38:52;1.53;;;0.30;;
13475;SDS011;6810;63.824;20.288;2023-03-01T16:41:39;0.73;;;0.10;;
13475;SDS011;6810;63.824;20.288;2023-03-01T16:44:26;0.13;;;0.10;;
13475;SDS011;6810;63.824;20.288;2023-03-01T16:47:13;1.67;;;0.30;;
13475;SDS011;6810;63.824;20.288;2023-03-01T16:50:00;0.30;;;0.10;;
13475;SDS011;6810;63.824;20.288;2023-03-01T16:52:47;0.97;;;0.20;;
13475;SDS011;6810;63.824;20.288;2023-03-01T16:55:34;0.83;;;0.10;;
13475;SDS011;6810;63.824;20.288;2023-03-01T16:58:21;0.30;;;0.20;;
13475;SDS011;6810;63.824;20.288;2023-03-01T17:01:12;0.77;;;0.20;;
13475;SDS011;6810;63.824;20.288;2023-03-01T17:04:01;0.17;;;0.17;;
13475;SDS011;6810;63.824;20.288;2023-03-01T17:06:48;0.27;;;0.17;;
13475;SDS011;6810;63.824;20.288;2023-03-01T17:09:36;0.97;;;0.60;;
13475;SDS011;6810;63.824;20.288;2023-03-01T17:12:24;1.53;;;0.60;;
13475;SDS011;6810;63.824;20.288;2023-03-01T17:15:10;1.07;;;0.67;;
13475;SDS011;6810;63.824;20.288;2023-03-01T17:17:57;2.63;;;1.20;;
13475;SDS011;6810;63.824;20.288;2023-03-01T17:20:44;3.40;;;0.90;;
13475;SDS011;6810;63.824;20.288;2023-03-01T17:23:32;1.50;;;0.70;;
13475;SDS011;6810;63.824;20.288;2023-03-01T17:26:20;3.03;;;0.63;;
13475;SDS011;6810;63.824;20.288;2023-03-01T17:29:06;0.93;;;0.40;;
13475;SDS011;6810;63.824;20.288;2023-03-01T17:31:53;0.70;;;0.30;;
13475;SDS011;6810;63.824;20.288;2023-03-01T17:34:41;3.80;;;0.40;;
13475;SDS011;6810;63.824;20.288;2023-03-01T17:37:28;0.33;;;0.10;;
13475;SDS011;6810;63.824;20.288;2023-03-01T17:40:15;0.20;;;0.07;;
13475;SDS011;6810;63.824;20.288;2023-03-01T17:43:02;0.50;;;0.37;;
13475;SDS011;6810;63.824;20.288;2023-03-01T17:45:49;0.20;;;0.20;;
13475;SDS011;6810;63.824;20.288;2023-03-01T17:48:36;0.67;;;0.20;;
13475;SDS011;6810;63.824;20.288;2023-03-01T17:51:23;0.70;;;0.13;;
13475;SDS011;6810;63.824;20.288;2023-03-01T17:54:10;0.40;;;0.27;;
13475;SDS011;6810;63.824;20.288;2023-03-01T17:56:58;0.63;;;0.43;;
13475;SDS011;6810;63.824;20.288;2023-03-01T17:59:45;0.87;;;0.40;;
13475;SDS011;6810;63.824;20.288;2023-03-01T18:02:36;1.40;;;0.50;;
13475;SDS011;6810;63.824;20.288;2023-03-01T18:05:23;0.77;;;0.37;;
13475;SDS011;6810;63.824;20.288;2023-03-01T18:08:11;0.50;;;0.50;;
13475;SDS011;6810;63.824;20.288;2023-03-01T18:10:58;1.03;;;0.47;;